sensor_id;sensor_type;location;lat;lon;timestamp;pressure;altitude;pressure_sealevel;temperature;humidity
82458;BME280;72081;48.870;11.074;2024-01-16T00:01:43;96438.78;;;-2.49;81.28
82458;BME280;72081;48.870;11.074;2024-01-16T00:04:09;96431.94;;;-2.50;81.50
82458;BME280;72081;48.870;11.074;2024-01-16T00:07:56;96441.72;;;-2.52;81.51
82458;BME280;72081;48.870;11.074;2024-01-16T00:10:24;96440.78;;;-2.59;81.86
82458;BME280;72081;48.870;11.074;2024-01-16T00:12:50;96444.88;;;-2.64;81.62
82458;BME280;72081;48.870;11.074;2024-01-16T00:15:15;96442.44;;;-2.66;81.08
82458;BME280;72081;48.870;11.074;2024-01-16T00:17:40;96443.72;;;-2.70;82.04
82458;BME280;72081;48.870;11.074;2024-01-16T00:20:06;96445.84;;;-2.73;81.81
82458;BME280;72081;48.870;11.074;2024-01-16T00:22:32;96455.47;;;-2.74;82.17
82458;BME280;72081;48.870;11.074;2024-01-16T00:24:57;96440.97;;;-2.77;82.00
82458;BME280;72081;48.870;11.074;2024-01-16T00:27:22;96448.97;;;-2.78;82.07
82458;BME280;72081;48.870;11.074;2024-01-16T00:29:47;96448.81;;;-2.77;81.81
82458;BME280;72081;48.870;11.074;2024-01-16T00:32:13;96454.66;;;-2.75;81.84
82458;BME280;72081;48.870;11.074;2024-01-16T00:34:41;96451.59;;;-2.78;81.78
82458;BME280;72081;48.870;11.074;2024-01-16T00:37:07;96452.91;;;-2.82;81.91
82458;BME280;72081;48.870;11.074;2024-01-16T00:39:32;96453.06;;;-2.84;82.49
82458;BME280;72081;48.870;11.074;2024-01-16T00:41:58;96451.78;;;-2.88;82.39
82458;BME280;72081;48.870;11.074;2024-01-16T00:44:23;96455.84;;;-2.93;82.45
82458;BME280;72081;48.870;11.074;2024-01-16T00:46:48;96456.16;;;-2.96;82.76
82458;BME280;72081;48.870;11.074;2024-01-16T00:49:14;96452.56;;;-2.95;82.27
82458;BME280;72081;48.870;11.074;2024-01-16T00:51:39;96456.03;;;-3.03;81.88
82458;BME280;72081;48.870;11.074;2024-01-16T00:54:04;96455.22;;;-3.03;82.63
82458;BME280;72081;48.870;11.074;2024-01-16T00:56:32;96446.72;;;-3.06;82.07
82458;BME280;72081;48.870;11.074;2024-01-16T00:58:59;96451.78;;;-3.04;82.70
82458;BME280;72081;48.870;11.074;2024-01-16T01:01:24;96439.88;;;-3.07;82.66
82458;BME280;72081;48.870;11.074;2024-01-16T01:03:51;96443.13;;;-3.04;83.09
82458;BME280;72081;48.870;11.074;2024-01-16T01:06:16;96451.78;;;-3.04;82.10
82458;BME280;72081;48.870;11.074;2024-01-16T01:08:41;96450.97;;;-3.04;82.33
82458;BME280;72081;48.870;11.074;2024-01-16T01:11:06;96448.69;;;-3.08;82.39
82458;BME280;72081;48.870;11.074;2024-01-16T01:13:32;96452.59;;;-3.12;82.73
82458;BME280;72081;48.870;11.074;2024-01-16T01:15:57;96456.19;;;-3.13;82.42
82458;BME280;72081;48.870;11.074;2024-01-16T01:18:22;96463.03;;;-3.12;82.07
82458;BME280;72081;48.870;11.074;2024-01-16T01:20:48;96464.66;;;-3.11;83.39
82458;BME280;72081;48.870;11.074;2024-01-16T01:23:13;96468.25;;;-3.12;82.19
82458;BME280;72081;48.870;11.074;2024-01-16T01:25:38;96476.41;;;-3.15;82.36
82458;BME280;72081;48.870;11.074;2024-01-16T01:28:04;96477.38;;;-3.16;82.34
82458;BME280;72081;48.870;11.074;2024-01-16T01:30:30;96479.03;;;-3.23;82.41
82458;BME280;72081;48.870;11.074;2024-01-16T01:32:55;96474.44;;;-3.21;82.82
82458;BME280;72081;48.870;11.074;2024-01-16T01:35:20;96485.22;;;-3.24;82.68
82458;BME280;72081;48.870;11.074;2024-01-16T01:37:46;96487.47;;;-3.29;83.27
82458;BME280;72081;48.870;11.074;2024-01-16T01:40:11;96491.06;;;-3.30;82.72
82458;BME280;72081;48.870;11.074;2024-01-16T01:42:37;96496.75;;;-3.34;82.94
82458;BME280;72081;48.870;11.074;2024-01-16T01:45:03;96500.69;;;-3.39;82.79
82458;BME280;72081;48.870;11.074;2024-01-16T01:47:29;96501.31;;;-3.37;83.23
82458;BME280;72081;48.870;11.074;2024-01-16T01:49:55;96498.22;;;-3.40;82.96
82458;BME280;72081;48.870;11.074;2024-01-16T01:52:20;96507.84;;;-3.41;82.78
82458;BME280;72081;48.870;11.074;2024-01-16T01:54:46;96512.25;;;-3.41;83.33
82458;BME280;72081;48.870;11.074;2024-01-16T01:57:12;96512.56;;;-3.44;82.98
82458;BME280;72081;48.870;11.074;2024-01-16T01:59:37;96510.59;;;-3.50;83.04
82458;BME280;72081;48.870;11.074;2024-01-16T02:02:02;96526.22;;;-3.50;83.35
82458;BME280;72081;48.870;11.074;2024-01-16T02:04:30;96526.72;;;-3.55;83.15
82458;BME280;72081;48.870;11.074;2024-01-16T02:06:56;96518.41;;;-3.50;83.65
82458;BME280;72081;48.870;11.074;2024-01-16T02:09:22;96530.94;;;-3.54;83.31
82458;BME280;72081;48.870;11.074;2024-01-16T02:11:48;96520.84;;;-3.57;84.23
82458;BME280;72081;48.870;11.074;2024-01-16T02:14:13;96532.09;;;-3.56;83.80
82458;BME280;72081;48.870;11.074;2024-01-16T02:16:41;96530.47;;;-3.57;83.42
82458;BME280;72081;48.870;11.074;2024-01-16T02:19:07;96531.13;;;-3.55;83.53
82458;BME280;72081;48.870;11.074;2024-01-16T02:21:37;96531.28;;;-3.57;83.17
82458;BME280;72081;48.870;11.074;2024-01-16T02:24:07;96526.53;;;-3.61;83.21
82458;BME280;72081;48.870;11.074;2024-01-16T02:26:33;96533.06;;;-3.65;83.33
82458;BME280;72081;48.870;11.074;2024-01-16T02:29:01;96526.19;;;-3.67;83.21
82458;BME280;72081;48.870;11.074;2024-01-16T02:31:26;96534.16;;;-3.68;83.87
82458;BME280;72081;48.870;11.074;2024-01-16T02:33:51;96531.22;;;-3.73;83.36
82458;BME280;72081;48.870;11.074;2024-01-16T02:36:18;96528.78;;;-3.75;83.76
82458;BME280;72081;48.870;11.074;2024-01-16T02:38:43;96535.94;;;-3.77;83.68
82458;BME280;72081;48.870;11.074;2024-01-16T02:41:08;96533.00;;;-3.82;82.93
82458;BME280;72081;48.870;11.074;2024-01-16T02:43:37;96538.97;;;-3.89;82.92
82458;BME280;72081;48.870;11.074;2024-01-16T02:46:02;96544.84;;;-3.87;83.59
82458;BME280;72081;48.870;11.074;2024-01-16T02:48:27;96538.81;;;-3.88;83.93
82458;BME280;72081;48.870;11.074;2024-01-16T02:50:53;96538.81;;;-3.88;83.18
82458;BME280;72081;48.870;11.074;2024-01-16T02:53:18;96541.09;;;-3.93;83.74
82458;BME280;72081;48.870;11.074;2024-01-16T02:56:47;96558.00;;;-3.97;83.69
82458;BME280;72081;48.870;11.074;2024-01-16T02:59:12;96556.84;;;-4.03;83.76
82458;BME280;72081;48.870;11.074;2024-01-16T03:01:37;96561.25;;;-4.03;84.11
82458;BME280;72081;48.870;11.074;2024-01-16T03:04:02;96566.81;;;-3.98;83.80
82458;BME280;72081;48.870;11.074;2024-01-16T03:06:28;96575.28;;;-3.96;84.29
82458;BME280;72081;48.870;11.074;2024-01-16T03:08:54;96577.06;;;-3.97;84.51
82458;BME280;72081;48.870;11.074;2024-01-16T03:11:19;96577.91;;;-3.88;84.53
82458;BME280;72081;48.870;11.074;2024-01-16T03:13:44;96574.97;;;-3.93;83.61
82458;BME280;72081;48.870;11.074;2024-01-16T03:16:10;96589.63;;;-3.92;84.03
82458;BME280;72081;48.870;11.074;2024-01-16T03:18:37;96588.66;;;-3.91;83.57
82458;BME280;72081;48.870;11.074;2024-01-16T03:21:03;96585.84;;;-3.98;83.83
82458;BME280;72081;48.870;11.074;2024-01-16T03:23:28;96584.72;;;-3.95;84.47
82458;BME280;72081;48.870;11.074;2024-01-16T03:25:54;96599.69;;;-3.97;83.98
82458;BME280;72081;48.870;11.074;2024-01-16T03:28:19;96600.00;;;-4.00;84.25
82458;BME280;72081;48.870;11.074;2024-01-16T03:30:45;96601.66;;;-3.99;84.59
82458;BME280;72081;48.870;11.074;2024-01-16T03:33:11;96603.75;;;-4.03;83.54
82458;BME280;72081;48.870;11.074;2024-01-16T03:35:36;96611.34;;;-4.09;83.50
82458;BME280;72081;48.870;11.074;2024-01-16T03:38:01;96606.09;;;-4.17;83.38
82458;BME280;72081;48.870;11.074;2024-01-16T03:40:27;96606.56;;;-4.22;84.42
82458;BME280;72081;48.870;11.074;2024-01-16T03:42:52;96606.72;;;-4.23;83.63
82458;BME280;72081;48.870;11.074;2024-01-16T03:45:17;96604.72;;;-4.30;84.19
82458;BME280;72081;48.870;11.074;2024-01-16T03:47:42;96596.53;;;-4.35;83.99
82458;BME280;72081;48.870;11.074;2024-01-16T03:50:08;96606.91;;;-4.43;83.54
82458;BME280;72081;48.870;11.074;2024-01-16T03:52:33;96600.81;;;-4.51;83.95
82458;BME280;72081;48.870;11.074;2024-01-16T03:54:59;96597.03;;;-4.57;83.88
82458;BME280;72081;48.870;11.074;2024-01-16T03:57:24;96601.44;;;-4.57;83.93
82458;BME280;72081;48.870;11.074;2024-01-16T03:59:49;96601.06;;;-4.63;84.43
82458;BME280;72081;48.870;11.074;2024-01-16T04:02:15;96593.13;;;-4.61;85.31
82458;BME280;72081;48.870;11.074;2024-01-16T04:04:40;96600.31;;;-4.55;85.34
82458;BME280;72081;48.870;11.074;2024-01-16T04:07:05;96609.44;;;-4.51;85.32
82458;BME280;72081;48.870;11.074;2024-01-16T04:09:31;96602.28;;;-4.49;84.31
82458;BME280;72081;48.870;11.074;2024-01-16T04:11:56;96608.72;;;-4.61;83.65
82458;BME280;72081;48.870;11.074;2024-01-16T04:14:21;96615.13;;;-4.73;83.89
82458;BME280;72081;48.870;11.074;2024-01-16T04:16:46;96610.13;;;-4.84;83.55
82458;BME280;72081;48.870;11.074;2024-01-16T04:19:12;96612.53;;;-4.91;84.14
82458;BME280;72081;48.870;11.074;2024-01-16T04:21:38;96605.84;;;-4.94;84.29
82458;BME280;72081;48.870;11.074;2024-01-16T04:24:03;96606.72;;;-5.03;84.02
82458;BME280;72081;48.870;11.074;2024-01-16T04:26:28;96611.25;;;-5.05;83.61
82458;BME280;72081;48.870;11.074;2024-01-16T04:28:54;96610.22;;;-5.12;84.51
82458;BME280;72081;48.870;11.074;2024-01-16T04:31:19;96605.00;;;-5.12;85.46
82458;BME280;72081;48.870;11.074;2024-01-16T04:33:46;96609.47;;;-5.04;86.31
82458;BME280;72081;48.870;11.074;2024-01-16T04:36:12;96615.28;;;-4.93;85.81
82458;BME280;72081;48.870;11.074;2024-01-16T04:38:37;96614.69;;;-4.86;85.98
82458;BME280;72081;48.870;11.074;2024-01-16T04:41:02;96613.28;;;-4.81;85.61
82458;BME280;72081;48.870;11.074;2024-01-16T04:43:28;96612.31;;;-4.80;86.34
82458;BME280;72081;48.870;11.074;2024-01-16T04:45:53;96625.31;;;-4.80;85.53
82458;BME280;72081;48.870;11.074;2024-01-16T04:48:18;96624.72;;;-4.74;86.20
82458;BME280;72081;48.870;11.074;2024-01-16T04:50:43;96622.47;;;-4.69;86.60
82458;BME280;72081;48.870;11.074;2024-01-16T04:53:10;96623.91;;;-4.74;85.23
82458;BME280;72081;48.870;11.074;2024-01-16T04:55:35;96625.75;;;-4.84;84.48
82458;BME280;72081;48.870;11.074;2024-01-16T04:58:01;96623.75;;;-4.91;84.85
82458;BME280;72081;48.870;11.074;2024-01-16T05:00:26;96625.22;;;-4.88;84.64
82458;BME280;72081;48.870;11.074;2024-01-16T05:02:52;96628.94;;;-4.91;84.35
82458;BME280;72081;48.870;11.074;2024-01-16T05:05:18;96624.81;;;-5.01;85.45
82458;BME280;72081;48.870;11.074;2024-01-16T05:07:43;96622.72;;;-4.98;85.77
82458;BME280;72081;48.870;11.074;2024-01-16T05:10:12;96627.91;;;-4.98;86.14
82458;BME280;72081;48.870;11.074;2024-01-16T05:12:38;96623.03;;;-5.01;85.61
82458;BME280;72081;48.870;11.074;2024-01-16T05:15:04;96619.16;;;-4.97;86.34
82458;BME280;72081;48.870;11.074;2024-01-16T05:17:30;96616.25;;;-4.94;85.98
82458;BME280;72081;48.870;11.074;2024-01-16T05:19:55;96628.81;;;-4.89;86.03
82458;BME280;72081;48.870;11.074;2024-01-16T05:22:21;96625.69;;;-4.93;86.00
82458;BME280;72081;48.870;11.074;2024-01-16T05:24:46;96622.78;;;-4.90;86.25
82458;BME280;72081;48.870;11.074;2024-01-16T05:27:11;96625.09;;;-4.86;86.11
82458;BME280;72081;48.870;11.074;2024-01-16T05:29:36;96624.78;;;-4.83;85.95
82458;BME280;72081;48.870;11.074;2024-01-16T05:32:03;96626.72;;;-4.85;86.11
82458;BME280;72081;48.870;11.074;2024-01-16T05:34:28;96625.91;;;-4.86;86.03
82458;BME280;72081;48.870;11.074;2024-01-16T05:36:54;96631.34;;;-4.79;86.04
82458;BME280;72081;48.870;11.074;2024-01-16T05:39:20;96626.88;;;-4.87;85.75
82458;BME280;72081;48.870;11.074;2024-01-16T05:41:46;96614.41;;;-5.01;85.74
82458;BME280;72081;48.870;11.074;2024-01-16T05:45:37;96612.53;;;-5.09;85.30
82458;BME280;72081;48.870;11.074;2024-01-16T05:48:03;96608.22;;;-5.18;85.38
82458;BME280;72081;48.870;11.074;2024-01-16T05:50:29;96606.13;;;-5.32;85.10
82458;BME280;72081;48.870;11.074;2024-01-16T05:52:55;96609.00;;;-5.35;85.01
82458;BME280;72081;48.870;11.074;2024-01-16T05:55:20;96620.38;;;-5.36;85.56
82458;BME280;72081;48.870;11.074;2024-01-16T05:57:46;96613.69;;;-5.39;85.11
82458;BME280;72081;48.870;11.074;2024-01-16T06:00:12;96624.31;;;-5.60;84.42
82458;BME280;72081;48.870;11.074;2024-01-16T06:02:37;96626.19;;;-5.80;85.44
82458;BME280;72081;48.870;11.074;2024-01-16T06:05:03;96641.50;;;-5.76;86.14
82458;BME280;72081;48.870;11.074;2024-01-16T06:07:28;96637.38;;;-5.79;85.83
82458;BME280;72081;48.870;11.074;2024-01-16T06:09:53;96637.13;;;-5.76;86.44
82458;BME280;72081;48.870;11.074;2024-01-16T06:12:19;96632.41;;;-5.63;86.62
82458;BME280;72081;48.870;11.074;2024-01-16T06:14:44;96626.16;;;-5.70;85.51
82458;BME280;72081;48.870;11.074;2024-01-16T06:17:09;96620.38;;;-5.64;86.28
82458;BME280;72081;48.870;11.074;2024-01-16T06:19:34;96627.06;;;-5.61;85.75
82458;BME280;72081;48.870;11.074;2024-01-16T06:22:00;96630.91;;;-5.65;85.58
82458;BME280;72081;48.870;11.074;2024-01-16T06:24:26;96632.84;;;-5.67;85.76
82458;BME280;72081;48.870;11.074;2024-01-16T06:26:51;96640.72;;;-5.59;85.87
82458;BME280;72081;48.870;11.074;2024-01-16T06:29:16;96640.16;;;-5.53;85.59
82458;BME280;72081;48.870;11.074;2024-01-16T06:31:41;96634.22;;;-5.45;85.64
82458;BME280;72081;48.870;11.074;2024-01-16T06:34:07;96638.56;;;-5.36;85.34
82458;BME280;72081;48.870;11.074;2024-01-16T06:36:32;96636.94;;;-5.37;85.15
82458;BME280;72081;48.870;11.074;2024-01-16T06:38:58;96634.19;;;-5.36;84.67
82458;BME280;72081;48.870;11.074;2024-01-16T06:41:23;96626.25;;;-5.34;84.77
82458;BME280;72081;48.870;11.074;2024-01-16T06:43:48;96637.16;;;-5.31;83.97
82458;BME280;72081;48.870;11.074;2024-01-16T06:46:13;96631.66;;;-5.28;84.27
82458;BME280;72081;48.870;11.074;2024-01-16T06:48:39;96626.97;;;-5.24;83.46
82458;BME280;72081;48.870;11.074;2024-01-16T06:51:05;96628.06;;;-5.44;83.35
82458;BME280;72081;48.870;11.074;2024-01-16T06:53:30;96628.13;;;-5.54;82.89
82458;BME280;72081;48.870;11.074;2024-01-16T06:55:55;96632.88;;;-5.50;84.12
82458;BME280;72081;48.870;11.074;2024-01-16T06:58:21;96639.19;;;-5.52;84.18
82458;BME280;72081;48.870;11.074;2024-01-16T07:00:47;96635.28;;;-5.66;83.08
82458;BME280;72081;48.870;11.074;2024-01-16T07:03:13;96642.84;;;-5.72;83.28
82458;BME280;72081;48.870;11.074;2024-01-16T07:05:38;96628.38;;;-5.75;83.37
82458;BME280;72081;48.870;11.074;2024-01-16T07:08:06;96632.75;;;-5.75;83.94
82458;BME280;72081;48.870;11.074;2024-01-16T07:10:31;96634.66;;;-5.77;83.70
82458;BME280;72081;48.870;11.074;2024-01-16T07:12:56;96637.28;;;-5.77;84.22
82458;BME280;72081;48.870;11.074;2024-01-16T07:15:22;96644.66;;;-5.83;83.36
82458;BME280;72081;48.870;11.074;2024-01-16T07:17:47;96646.69;;;-5.76;83.48
82458;BME280;72081;48.870;11.074;2024-01-16T07:20:12;96644.34;;;-5.70;83.32
82458;BME280;72081;48.870;11.074;2024-01-16T07:22:38;96651.03;;;-5.67;82.88
82458;BME280;72081;48.870;11.074;2024-01-16T07:25:06;96667.50;;;-5.86;82.47
82458;BME280;72081;48.870;11.074;2024-01-16T07:27:32;96663.13;;;-5.86;84.19
82458;BME280;72081;48.870;11.074;2024-01-16T07:29:57;96663.91;;;-5.75;84.10
82458;BME280;72081;48.870;11.074;2024-01-16T07:32:23;96667.88;;;-5.71;84.08
82458;BME280;72081;48.870;11.074;2024-01-16T07:34:48;96657.09;;;-5.76;84.27
82458;BME280;72081;48.870;11.074;2024-01-16T07:37:13;96662.75;;;-5.63;84.02
82458;BME280;72081;48.870;11.074;2024-01-16T07:39:39;96660.69;;;-5.60;83.03
82458;BME280;72081;48.870;11.074;2024-01-16T07:42:04;96660.00;;;-5.52;83.95
82458;BME280;72081;48.870;11.074;2024-01-16T07:44:29;96668.03;;;-5.45;83.27
82458;BME280;72081;48.870;11.074;2024-01-16T07:46:55;96661.56;;;-5.41;84.29
82458;BME280;72081;48.870;11.074;2024-01-16T07:49:20;96662.88;;;-5.28;83.01
82458;BME280;72081;48.870;11.074;2024-01-16T07:51:45;96663.19;;;-5.40;81.72
82458;BME280;72081;48.870;11.074;2024-01-16T07:54:10;96658.97;;;-5.41;83.42
82458;BME280;72081;48.870;11.074;2024-01-16T07:56:38;96657.78;;;-5.47;83.34
82458;BME280;72081;48.870;11.074;2024-01-16T07:59:03;96652.78;;;-5.40;83.83
82458;BME280;72081;48.870;11.074;2024-01-16T08:01:29;96654.53;;;-5.31;83.24
82458;BME280;72081;48.870;11.074;2024-01-16T08:03:55;96642.59;;;-5.24;83.08
82458;BME280;72081;48.870;11.074;2024-01-16T08:06:21;96643.44;;;-5.06;83.64
82458;BME280;72081;48.870;11.074;2024-01-16T08:08:47;96651.56;;;-4.91;82.75
82458;BME280;72081;48.870;11.074;2024-01-16T08:11:12;96652.44;;;-4.82;82.56
82458;BME280;72081;48.870;11.074;2024-01-16T08:13:37;96651.25;;;-4.70;82.58
82458;BME280;72081;48.870;11.074;2024-01-16T08:16:03;96646.19;;;-4.72;81.75
82458;BME280;72081;48.870;11.074;2024-01-16T08:18:29;96634.31;;;-4.74;82.05
82458;BME280;72081;48.870;11.074;2024-01-16T08:20:56;96640.69;;;-4.69;81.24
82458;BME280;72081;48.870;11.074;2024-01-16T08:23:21;96641.59;;;-4.60;81.62
82458;BME280;72081;48.870;11.074;2024-01-16T08:25:47;96648.84;;;-4.46;81.45
82458;BME280;72081;48.870;11.074;2024-01-16T08:28:13;96643.09;;;-4.32;80.88
82458;BME280;72081;48.870;11.074;2024-01-16T08:30:38;96642.38;;;-4.24;80.65
82458;BME280;72081;48.870;11.074;2024-01-16T08:34:29;96653.28;;;-4.20;80.68
82458;BME280;72081;48.870;11.074;2024-01-16T08:36:54;96654.00;;;-4.10;81.23
82458;BME280;72081;48.870;11.074;2024-01-16T08:39:22;96654.72;;;-4.00;79.72
82458;BME280;72081;48.870;11.074;2024-01-16T08:41:47;96650.38;;;-3.91;79.82
82458;BME280;72081;48.870;11.074;2024-01-16T08:44:13;96654.09;;;-3.68;79.72
82458;BME280;72081;48.870;11.074;2024-01-16T08:46:38;96650.50;;;-3.67;78.37
82458;BME280;72081;48.870;11.074;2024-01-16T08:49:03;96654.47;;;-3.63;78.20
82458;BME280;72081;48.870;11.074;2024-01-16T08:51:28;96652.38;;;-3.51;78.06
82458;BME280;72081;48.870;11.074;2024-01-16T08:53:54;96659.88;;;-3.48;77.60
82458;BME280;72081;48.870;11.074;2024-01-16T08:56:19;96652.88;;;-3.48;76.46
82458;BME280;72081;48.870;11.074;2024-01-16T08:58:45;96659.13;;;-3.41;76.16
82458;BME280;72081;48.870;11.074;2024-01-16T09:01:11;96661.41;;;-3.29;76.00
82458;BME280;72081;48.870;11.074;2024-01-16T09:03:36;96649.72;;;-3.25;75.84
82458;BME280;72081;48.870;11.074;2024-01-16T09:06:02;96650.88;;;-3.20;75.57
82458;BME280;72081;48.870;11.074;2024-01-16T09:08:28;96647.66;;;-3.06;75.92
82458;BME280;72081;48.870;11.074;2024-01-16T09:10:53;96649.31;;;-2.96;74.95
82458;BME280;72081;48.870;11.074;2024-01-16T09:13:20;96647.06;;;-2.83;74.93
82458;BME280;72081;48.870;11.074;2024-01-16T09:15:48;96646.56;;;-2.87;73.49
82458;BME280;72081;48.870;11.074;2024-01-16T09:18:15;96650.78;;;-2.94;74.44
82458;BME280;72081;48.870;11.074;2024-01-16T09:20:41;96641.19;;;-2.85;74.05
82458;BME280;72081;48.870;11.074;2024-01-16T09:23:07;96638.56;;;-2.85;74.39
82458;BME280;72081;48.870;11.074;2024-01-16T09:25:32;96635.97;;;-2.77;73.31
82458;BME280;72081;48.870;11.074;2024-01-16T09:27:57;96636.63;;;-2.34;74.26
82458;BME280;72081;48.870;11.074;2024-01-16T09:30:22;96633.50;;;-2.14;71.76
82458;BME280;72081;48.870;11.074;2024-01-16T09:32:51;96641.16;;;-1.96;71.22
82458;BME280;72081;48.870;11.074;2024-01-16T09:35:16;96630.50;;;-1.78;70.16
82458;BME280;72081;48.870;11.074;2024-01-16T09:37:41;96643.75;;;-1.79;71.48
82458;BME280;72081;48.870;11.074;2024-01-16T09:40:07;96646.72;;;-1.83;70.43
82458;BME280;72081;48.870;11.074;2024-01-16T09:42:32;96640.16;;;-1.70;70.21
82458;BME280;72081;48.870;11.074;2024-01-16T09:45:00;96638.81;;;-1.66;69.98
82458;BME280;72081;48.870;11.074;2024-01-16T09:47:25;96633.13;;;-1.70;69.78
82458;BME280;72081;48.870;11.074;2024-01-16T09:49:52;96632.94;;;-1.68;70.07
82458;BME280;72081;48.870;11.074;2024-01-16T09:52:19;96634.78;;;-1.85;70.82
82458;BME280;72081;48.870;11.074;2024-01-16T09:54:44;96633.00;;;-2.01;71.44
82458;BME280;72081;48.870;11.074;2024-01-16T09:57:12;96630.22;;;-1.91;71.85
82458;BME280;72081;48.870;11.074;2024-01-16T09:59:39;96632.03;;;-2.00;71.90
82458;BME280;72081;48.870;11.074;2024-01-16T10:02:05;96632.19;;;-2.01;71.69
82458;BME280;72081;48.870;11.074;2024-01-16T10:04:33;96640.97;;;-1.78;70.56
82458;BME280;72081;48.870;11.074;2024-01-16T10:06:59;96639.16;;;-1.77;70.88
82458;BME280;72081;48.870;11.074;2024-01-16T10:09:26;96640.41;;;-1.57;71.97
82458;BME280;72081;48.870;11.074;2024-01-16T10:11:52;96634.50;;;-1.43;70.76
82458;BME280;72081;48.870;11.074;2024-01-16T10:14:18;96633.81;;;-1.37;70.88
82458;BME280;72081;48.870;11.074;2024-01-16T10:17:00;96639.25;;;-1.46;70.78
82458;BME280;72081;48.870;11.074;2024-01-16T10:19:30;96639.25;;;-1.46;70.33
82458;BME280;72081;48.870;11.074;2024-01-16T10:22:03;96627.97;;;-1.47;71.34
82458;BME280;72081;48.870;11.074;2024-01-16T10:24:28;96635.78;;;-1.39;71.20
82458;BME280;72081;48.870;11.074;2024-01-16T10:27:01;96630.06;;;-1.34;70.38
82458;BME280;72081;48.870;11.074;2024-01-16T10:29:28;96631.97;;;-1.28;70.14
82458;BME280;72081;48.870;11.074;2024-01-16T10:31:54;96624.78;;;-1.26;69.43
82458;BME280;72081;48.870;11.074;2024-01-16T10:34:22;96630.94;;;-1.19;69.55
82458;BME280;72081;48.870;11.074;2024-01-16T10:36:50;96631.28;;;-1.22;68.85
82458;BME280;72081;48.870;11.074;2024-01-16T10:39:16;96625.75;;;-1.27;68.93
82458;BME280;72081;48.870;11.074;2024-01-16T10:41:42;96621.16;;;-1.25;69.80
82458;BME280;72081;48.870;11.074;2024-01-16T10:44:18;96623.63;;;-1.24;69.29
82458;BME280;72081;48.870;11.074;2024-01-16T10:46:43;96624.53;;;-1.16;70.13
82458;BME280;72081;48.870;11.074;2024-01-16T10:49:09;96615.75;;;-1.15;69.05
82458;BME280;72081;48.870;11.074;2024-01-16T10:51:34;96611.97;;;-1.21;68.66
82458;BME280;72081;48.870;11.074;2024-01-16T10:54:03;96610.06;;;-1.27;70.61
82458;BME280;72081;48.870;11.074;2024-01-16T10:56:31;96611.00;;;-1.20;69.32
82458;BME280;72081;48.870;11.074;2024-01-16T10:59:03;96610.66;;;-1.17;69.18
82458;BME280;72081;48.870;11.074;2024-01-16T11:01:32;96616.38;;;-1.13;69.69
82458;BME280;72081;48.870;11.074;2024-01-16T11:03:58;96620.91;;;-1.07;68.36
82458;BME280;72081;48.870;11.074;2024-01-16T11:06:26;96620.56;;;-1.04;68.21
82458;BME280;72081;48.870;11.074;2024-01-16T11:08:53;96618.94;;;-1.05;69.82
82458;BME280;72081;48.870;11.074;2024-01-16T11:11:19;96614.41;;;-1.11;69.07
82458;BME280;72081;48.870;11.074;2024-01-16T11:13:46;96606.53;;;-1.11;69.47
82458;BME280;72081;48.870;11.074;2024-01-16T11:16:11;96612.00;;;-0.98;70.30
82458;BME280;72081;48.870;11.074;2024-01-16T11:18:37;96614.81;;;-1.00;69.57
82458;BME280;72081;48.870;11.074;2024-01-16T11:23:20;96601.38;;;-0.97;69.68
82458;BME280;72081;48.870;11.074;2024-01-16T11:25:45;96590.78;;;-1.03;69.19
82458;BME280;72081;48.870;11.074;2024-01-16T11:28:12;96593.06;;;-1.00;68.81
82458;BME280;72081;48.870;11.074;2024-01-16T11:30:38;96587.31;;;-0.96;68.83
82458;BME280;72081;48.870;11.074;2024-01-16T11:33:04;96579.22;;;-0.86;69.34
82458;BME280;72081;48.870;11.074;2024-01-16T11:35:34;96574.44;;;-0.82;69.80
82458;BME280;72081;48.870;11.074;2024-01-16T11:38:18;96570.06;;;-0.67;70.29
82458;BME280;72081;48.870;11.074;2024-01-16T11:40:46;96568.91;;;-0.65;68.25
82458;BME280;72081;48.870;11.074;2024-01-16T11:43:45;96555.91;;;-0.58;67.52
82458;BME280;72081;48.870;11.074;2024-01-16T11:46:10;96553.38;;;-0.66;68.78
82458;BME280;72081;48.870;11.074;2024-01-16T11:48:36;96556.63;;;-0.64;69.33
82458;BME280;72081;48.870;11.074;2024-01-16T11:51:32;96555.41;;;-0.53;67.14
82458;BME280;72081;48.870;11.074;2024-01-16T11:54:07;96558.28;;;-0.48;67.01
82458;BME280;72081;48.870;11.074;2024-01-16T11:56:55;96543.78;;;-0.36;67.38
82458;BME280;72081;48.870;11.074;2024-01-16T11:59:43;96533.84;;;-0.26;67.53
82458;BME280;72081;48.870;11.074;2024-01-16T12:02:21;96523.81;;;-0.22;65.99
82458;BME280;72081;48.870;11.074;2024-01-16T12:04:55;96528.22;;;-0.23;64.76
82458;BME280;72081;48.870;11.074;2024-01-16T12:07:22;96523.75;;;-0.14;65.82
82458;BME280;72081;48.870;11.074;2024-01-16T12:09:47;96518.75;;;-0.09;65.18
82458;BME280;72081;48.870;11.074;2024-01-16T12:12:15;96512.50;;;-0.23;66.01
82458;BME280;72081;48.870;11.074;2024-01-16T12:14:40;96504.00;;;-0.40;65.99
82458;BME280;72081;48.870;11.074;2024-01-16T12:17:13;96504.16;;;-0.41;67.69
82458;BME280;72081;48.870;11.074;2024-01-16T12:19:39;96498.28;;;-0.43;66.70
82458;BME280;72081;48.870;11.074;2024-01-16T12:22:10;96496.78;;;-0.38;65.97
82458;BME280;72081;48.870;11.074;2024-01-16T12:24:38;96506.53;;;-0.32;66.33
82458;BME280;72081;48.870;11.074;2024-01-16T12:27:04;96508.09;;;-0.37;66.73
82458;BME280;72081;48.870;11.074;2024-01-16T12:29:29;96500.66;;;-0.34;66.45
82458;BME280;72081;48.870;11.074;2024-01-16T12:32:11;96502.13;;;-0.31;67.66
82458;BME280;72081;48.870;11.074;2024-01-16T12:34:44;96501.47;;;-0.33;67.57
82458;BME280;72081;48.870;11.074;2024-01-16T12:37:10;96496.22;;;-0.48;67.17
82458;BME280;72081;48.870;11.074;2024-01-16T12:39:36;96494.78;;;-0.50;67.10
82458;BME280;72081;48.870;11.074;2024-01-16T12:42:02;96497.56;;;-0.52;68.05
82458;BME280;72081;48.870;11.074;2024-01-16T12:44:28;96485.00;;;-0.56;67.24
82458;BME280;72081;48.870;11.074;2024-01-16T12:46:54;96484.03;;;-0.55;67.57
82458;BME280;72081;48.870;11.074;2024-01-16T12:49:21;96482.22;;;-0.55;67.39
82458;BME280;72081;48.870;11.074;2024-01-16T12:51:47;96481.84;;;-0.52;67.81
82458;BME280;72081;48.870;11.074;2024-01-16T12:54:17;96477.97;;;-0.56;67.27